createdAt,value
2018-06-15T00:01:25.440Z,12.93
2018-06-15T00:03:55.564Z,13.30
2018-06-15T00:06:25.712Z,13.03
2018-06-15T00:08:55.605Z,10.00
2018-06-15T00:11:25.385Z,12.97
2018-06-15T00:13:55.459Z,12.17
2018-06-15T00:16:25.559Z,11.70
2018-06-15T00:18:55.652Z,14.60
2018-06-15T00:21:25.855Z,14.17
2018-06-15T00:23:56.151Z,15.08
2018-06-15T00:26:26.062Z,14.93
2018-06-15T00:28:55.900Z,13.13
2018-06-15T00:31:25.911Z,13.00
2018-06-15T00:33:56.111Z,15.90
2018-06-15T00:36:26.272Z,15.20
2018-06-15T00:38:56.261Z,14.77
2018-06-15T00:41:26.536Z,12.90
2018-06-15T00:43:56.516Z,16.63
2018-06-15T00:46:26.608Z,16.47
2018-06-15T00:48:56.812Z,17.90
2018-06-15T00:51:26.949Z,14.20
2018-06-15T00:53:57.106Z,14.33
2018-06-15T00:56:27.346Z,14.90
2018-06-15T00:58:57.839Z,15.67
2018-06-15T01:01:27.761Z,17.07
2018-06-15T01:03:57.862Z,16.60
2018-06-15T01:06:27.880Z,18.00
2018-06-15T01:08:57.869Z,12.73
2018-06-15T01:11:28.000Z,14.73
2018-06-15T01:13:58.076Z,16.40
2018-06-15T01:16:28.284Z,16.35
2018-06-15T01:18:58.556Z,16.13
2018-06-15T01:21:28.611Z,16.33
2018-06-15T01:23:58.874Z,15.87
2018-06-15T01:26:28.796Z,17.37
2018-06-15T01:28:58.954Z,15.13
2018-06-15T01:31:28.815Z,17.10
2018-06-15T01:33:59.351Z,15.40
2018-06-15T01:36:29.551Z,15.70
2018-06-15T01:38:59.529Z,15.67
2018-06-15T01:41:29.274Z,15.27
2018-06-15T01:43:59.473Z,17.45
2018-06-15T01:46:29.323Z,16.53
2018-06-15T01:48:59.276Z,15.47
2018-06-15T01:51:29.151Z,16.67
2018-06-15T01:53:59.288Z,17.97
2018-06-15T01:56:29.495Z,16.40
2018-06-15T01:58:59.492Z,18.00
2018-06-15T02:01:29.921Z,16.50
2018-06-15T02:04:00.617Z,20.57
2018-06-15T02:06:30.922Z,18.35
2018-06-15T02:09:01.744Z,20.73
2018-06-15T02:11:32.589Z,17.57
2018-06-15T02:14:02.295Z,17.70
2018-06-15T02:20:22.295Z,22.03
2018-06-15T02:22:52.227Z,15.97
2018-06-15T02:25:21.986Z,19.80
2018-06-15T02:27:51.912Z,20.07
2018-06-15T02:30:22.007Z,19.17
2018-06-15T02:32:52.283Z,20.07
2018-06-15T02:35:22.422Z,17.93
2018-06-15T02:37:52.852Z,19.20
2018-06-15T02:40:22.844Z,15.40
2018-06-15T02:42:52.922Z,20.00
2018-06-15T02:45:22.987Z,20.47
2018-06-15T02:47:53.098Z,21.60
2018-06-15T02:50:23.123Z,21.73
2018-06-15T02:52:53.312Z,21.23
2018-06-15T02:55:23.500Z,22.70
2018-06-15T02:57:53.808Z,24.60
2018-06-15T03:00:24.638Z,22.37
2018-06-15T03:02:54.722Z,23.20
2018-06-15T03:05:25.082Z,21.70
2018-06-15T03:07:55.101Z,22.17
2018-06-15T03:10:25.168Z,22.93
2018-06-15T03:12:55.092Z,19.62
2018-06-15T03:15:25.046Z,21.13
2018-06-15T03:17:54.849Z,21.95
2018-06-15T03:20:24.970Z,22.17
2018-06-15T03:22:54.881Z,21.95
2018-06-15T03:25:24.730Z,18.35
2018-06-15T03:27:54.773Z,20.90
2018-06-15T03:30:24.911Z,24.20
2018-06-15T03:32:54.875Z,21.47
2018-06-15T03:35:25.157Z,22.80
2018-06-15T03:37:55.085Z,24.90
2018-06-15T03:40:25.549Z,20.67
2018-06-15T03:42:55.654Z,19.67
2018-06-15T03:45:25.572Z,18.70
2018-06-15T03:47:55.550Z,17.55
2018-06-15T03:50:25.401Z,21.03
2018-06-15T03:52:55.562Z,20.32
2018-06-15T03:55:25.615Z,24.03
2018-06-15T03:57:55.462Z,26.53
2018-06-15T04:00:25.546Z,24.60
2018-06-15T04:02:55.953Z,26.17
2018-06-15T04:05:26.251Z,22.93
2018-06-15T04:07:56.258Z,23.03
2018-06-15T04:10:26.423Z,25.62
2018-06-15T04:12:56.482Z,26.57
2018-06-15T04:15:27.363Z,25.10
2018-06-15T04:18:02.868Z,23.92
2018-06-15T04:20:33.065Z,26.00
2018-06-15T04:23:03.378Z,25.97
2018-06-15T04:25:33.976Z,22.50
2018-06-15T04:28:04.272Z,25.40
2018-06-15T04:30:34.291Z,25.33
2018-06-15T04:33:04.417Z,23.97
2018-06-15T04:35:34.356Z,25.53
2018-06-15T04:38:04.306Z,21.87
2018-06-15T04:40:34.244Z,27.67
2018-06-15T04:43:03.944Z,26.13
2018-06-15T04:45:34.300Z,25.00
2018-06-15T04:48:05.003Z,30.50
2018-06-15T04:50:35.417Z,27.00
2018-06-15T04:53:06.044Z,30.82
2018-06-15T04:55:36.402Z,31.15
2018-06-15T04:58:07.081Z,29.13
2018-06-15T05:00:37.669Z,28.75
2018-06-15T05:03:07.889Z,28.42
2018-06-15T05:05:38.997Z,32.35
2018-06-15T05:08:08.879Z,30.00
2018-06-15T05:10:39.352Z,29.60
2018-06-15T05:13:10.147Z,32.67
2018-06-15T05:15:41.012Z,32.08
2018-06-15T05:18:11.023Z,28.73
2018-06-15T05:20:41.728Z,32.03
2018-06-15T05:23:11.875Z,31.62
2018-06-15T05:25:42.610Z,29.55
2018-06-15T05:28:13.368Z,26.73
2018-06-15T05:30:44.058Z,32.03
2018-06-15T05:33:14.171Z,32.10
2018-06-15T05:35:45.107Z,31.35
2018-06-15T05:38:15.162Z,30.88
2018-06-15T05:40:45.731Z,34.43
2018-06-15T05:43:15.901Z,35.08
2018-06-15T05:45:46.930Z,36.28
2018-06-15T05:48:17.188Z,37.00
2018-06-15T05:50:47.743Z,39.15
2018-06-15T05:53:18.561Z,36.25
2018-06-15T05:55:48.739Z,33.60
2018-06-15T05:58:19.066Z,39.80
2018-06-15T06:00:50.380Z,31.60
2018-06-15T06:03:20.628Z,39.07
2018-06-15T06:05:50.641Z,39.00
2018-06-15T06:08:21.687Z,38.83
2018-06-15T06:10:51.877Z,39.20
2018-06-15T06:13:22.705Z,38.70
2018-06-15T06:15:52.895Z,33.27
2018-06-15T06:18:23.178Z,42.00
2018-06-15T06:20:53.782Z,37.42
2018-06-15T06:23:24.204Z,35.07
2018-06-15T06:25:54.943Z,34.78
2018-06-15T06:28:25.236Z,33.70
2018-06-15T06:30:56.417Z,43.77
2018-06-15T06:33:26.671Z,41.80
2018-06-15T06:35:57.091Z,42.90
2018-06-15T06:38:27.449Z,33.33
2018-06-15T06:40:58.668Z,38.95
2018-06-15T06:43:28.902Z,39.85
2018-06-15T06:45:59.594Z,36.60
2018-06-15T06:48:29.805Z,40.17
2018-06-15T06:51:00.374Z,37.30
2018-06-15T06:53:30.842Z,29.92
2018-06-15T06:56:01.482Z,38.33
2018-06-15T06:58:32.191Z,34.92
2018-06-15T07:01:02.743Z,34.23
2018-06-15T07:03:33.028Z,34.48
2018-06-15T07:06:03.313Z,64.87
2018-06-15T07:08:34.214Z,45.33
2018-06-15T07:11:04.466Z,38.90
2018-06-15T07:13:35.193Z,33.42
2018-06-15T07:16:05.923Z,37.20
2018-06-15T07:18:36.372Z,34.55
2018-06-15T07:21:06.685Z,38.90
2018-06-15T07:23:37.091Z,33.87
2018-06-15T07:26:07.815Z,36.77
2018-06-15T07:28:38.085Z,32.60
2018-06-15T07:31:08.580Z,35.68
2018-06-15T07:33:39.277Z,32.33
2018-06-15T07:36:10.227Z,66.22
2018-06-15T07:38:40.468Z,44.77
2018-06-15T07:41:11.015Z,34.10
2018-06-15T07:43:41.465Z,34.10
2018-06-15T07:46:11.463Z,33.13
2018-06-15T07:48:42.442Z,34.00
2018-06-15T07:51:12.949Z,33.95
2018-06-15T07:53:43.812Z,30.75
2018-06-15T07:56:14.722Z,33.15
2018-06-15T07:58:44.877Z,34.63
2018-06-15T08:01:15.239Z,32.90
2018-06-15T08:03:50.592Z,31.00
2018-06-15T08:06:20.779Z,32.38
2018-06-15T08:08:50.677Z,31.07
2018-06-15T08:11:20.775Z,28.10
2018-06-15T08:13:50.777Z,27.47
2018-06-15T08:16:21.353Z,27.33
2018-06-15T08:18:51.464Z,41.10
2018-06-15T08:21:21.260Z,39.73
2018-06-15T08:23:51.229Z,31.00
2018-06-15T08:26:21.189Z,32.43
2018-06-15T08:28:51.248Z,27.67
2018-06-15T08:31:21.465Z,28.77
2018-06-15T08:33:51.987Z,28.03
2018-06-15T08:36:22.160Z,28.33
2018-06-15T08:38:52.831Z,26.25
2018-06-15T08:41:23.087Z,26.90
2018-06-15T08:43:53.789Z,26.40
2018-06-15T08:46:24.423Z,27.40
2018-06-15T08:48:54.988Z,26.20
2018-06-15T09:00:23.844Z,23.80
2018-06-15T09:02:54.153Z,23.57
2018-06-15T09:05:24.828Z,23.40
2018-06-15T09:07:55.266Z,22.20
2018-06-15T09:10:25.489Z,23.40
2018-06-15T09:12:56.443Z,22.03
2018-06-15T09:15:26.693Z,19.00
2018-06-15T09:17:57.616Z,19.07
2018-06-15T09:20:28.027Z,20.13
2018-06-15T09:22:58.257Z,17.73
2018-06-15T09:25:28.499Z,19.47
2018-06-15T09:27:58.564Z,21.63
2018-06-15T09:30:28.743Z,16.77
2018-06-15T09:32:58.888Z,11.10
2018-06-15T09:35:29.055Z,11.27
2018-06-15T09:37:59.127Z,10.63
2018-06-15T09:40:29.319Z,12.13
2018-06-15T09:42:59.429Z,12.20
2018-06-15T09:45:29.704Z,12.70
2018-06-15T09:47:59.883Z,11.10
2018-06-15T09:50:30.364Z,12.80
2018-06-15T09:53:00.332Z,11.97
2018-06-15T09:55:30.572Z,14.70
2018-06-15T09:58:00.736Z,12.07
2018-06-15T10:00:35.950Z,10.50
2018-06-15T10:03:06.078Z,10.07
2018-06-15T10:05:36.395Z,10.73
2018-06-15T10:08:06.482Z,11.80
2018-06-15T10:10:36.706Z,10.70
2018-06-15T10:13:06.909Z,8.10
2018-06-15T10:15:37.888Z,7.53
2018-06-15T10:18:08.245Z,8.23
2018-06-15T10:20:38.324Z,9.65
2018-06-15T10:23:08.489Z,12.97
2018-06-15T10:25:38.700Z,12.40
2018-06-15T10:28:09.159Z,12.43
2018-06-15T10:30:39.458Z,10.67
2018-06-15T10:33:10.032Z,11.37
2018-06-15T10:35:40.473Z,11.37
2018-06-15T10:38:10.868Z,12.33
2018-06-15T10:40:41.042Z,9.30
2018-06-15T10:43:11.347Z,5.60
2018-06-15T10:45:41.881Z,5.80
2018-06-15T10:48:13.158Z,6.10
2018-06-15T10:50:43.480Z,7.37
2018-06-15T10:53:13.835Z,10.13
2018-06-15T10:55:44.136Z,12.63
2018-06-15T10:58:14.398Z,10.70
2018-06-15T11:00:44.691Z,12.10
2018-06-15T11:03:14.872Z,11.77
2018-06-15T11:05:44.882Z,11.97
2018-06-15T11:08:15.963Z,11.17
2018-06-15T11:10:46.185Z,9.00
2018-06-15T11:13:16.336Z,19.07
2018-06-15T11:15:46.418Z,11.20
2018-06-15T11:18:16.789Z,10.20
2018-06-15T11:20:46.903Z,8.53
2018-06-15T11:23:17.299Z,7.50
2018-06-15T11:25:47.399Z,8.07
2018-06-15T11:28:17.565Z,8.17
2018-06-15T11:30:47.881Z,7.67
2018-06-15T11:33:18.033Z,6.50
2018-06-15T11:35:48.260Z,7.80
2018-06-15T11:38:18.406Z,7.70
2018-06-15T11:40:48.555Z,6.85
2018-06-15T11:43:18.772Z,7.28
2018-06-15T11:45:49.009Z,6.83
2018-06-15T11:48:19.202Z,7.40
2018-06-15T11:50:49.319Z,5.43
2018-06-15T11:53:19.490Z,6.97
2018-06-15T11:55:49.728Z,6.90
2018-06-15T11:58:19.811Z,5.60
2018-06-15T12:00:50.325Z,6.30
2018-06-15T12:03:20.473Z,5.93
2018-06-15T12:05:51.056Z,6.77
2018-06-15T12:08:21.770Z,9.67
2018-06-15T12:10:51.918Z,7.03
2018-06-15T12:13:22.239Z,6.27
2018-06-15T12:15:52.377Z,6.73
2018-06-15T12:18:22.608Z,7.97
2018-06-15T12:20:52.933Z,6.55
2018-06-15T12:23:23.032Z,5.47
2018-06-15T12:25:53.279Z,5.30
2018-06-15T12:28:23.643Z,5.73
2018-06-15T12:30:53.949Z,5.23
2018-06-15T12:33:24.208Z,5.73
2018-06-15T12:35:54.326Z,5.60
2018-06-15T12:38:25.003Z,5.40
2018-06-15T12:40:55.113Z,5.57
2018-06-15T12:43:25.303Z,4.80
2018-06-15T12:45:55.751Z,5.57
2018-06-15T12:48:25.915Z,5.10
2018-06-15T12:50:56.072Z,5.40
2018-06-15T12:53:26.418Z,4.87
2018-06-15T12:55:56.534Z,5.67
2018-06-15T12:58:26.675Z,4.92
2018-06-15T13:00:56.746Z,6.37
2018-06-15T13:03:26.785Z,5.33
2018-06-15T13:05:57.196Z,5.67
2018-06-15T13:08:27.302Z,5.47
2018-06-15T13:10:57.635Z,5.73
2018-06-15T13:13:27.694Z,5.72
2018-06-15T13:15:57.849Z,6.03
2018-06-15T13:18:28.236Z,5.97
2018-06-15T13:20:58.473Z,5.17
2018-06-15T13:23:28.494Z,5.23
2018-06-15T13:25:58.795Z,6.47
2018-06-15T13:28:28.930Z,5.57
2018-06-15T13:30:59.410Z,5.92
2018-06-15T13:33:29.608Z,4.80
2018-06-15T13:35:59.808Z,5.15
2018-06-15T13:38:29.969Z,5.58
2018-06-15T13:41:00.134Z,4.70
2018-06-15T13:43:30.189Z,5.60
2018-06-15T13:46:00.091Z,5.50
2018-06-15T13:48:30.389Z,5.77
2018-06-15T13:51:00.659Z,8.48
2018-06-15T13:53:31.056Z,6.10
2018-06-15T13:56:01.534Z,7.30
2018-06-15T13:58:32.011Z,6.78
2018-06-15T14:01:02.471Z,5.87
2018-06-15T14:03:32.621Z,6.50
2018-06-15T14:06:03.018Z,5.60
2018-06-15T14:08:33.436Z,4.90
2018-06-15T14:11:03.556Z,4.60
2018-06-15T14:13:33.580Z,4.93
2018-06-15T14:16:03.787Z,4.78
2018-06-15T14:18:34.006Z,5.05
2018-06-15T14:21:04.259Z,5.10
2018-06-15T14:23:34.268Z,4.63
2018-06-15T14:26:04.380Z,4.67
2018-06-15T14:28:34.565Z,5.17
2018-06-15T14:31:04.751Z,4.23
2018-06-15T14:33:34.880Z,4.78
2018-06-15T14:36:05.066Z,4.70
2018-06-15T14:38:35.470Z,4.47
2018-06-15T14:41:06.001Z,4.60
2018-06-15T14:43:36.232Z,4.05
2018-06-15T14:46:06.870Z,11.45
2018-06-15T14:48:37.160Z,5.25
2018-06-15T14:51:07.269Z,4.40
2018-06-15T14:53:37.596Z,3.70
2018-06-15T14:56:07.905Z,4.50
2018-06-15T14:58:38.104Z,4.15
2018-06-15T15:01:08.181Z,3.77
2018-06-15T15:03:38.528Z,3.67
2018-06-15T15:06:08.621Z,3.80
2018-06-15T15:08:38.677Z,3.98
2018-06-15T15:11:08.704Z,3.55
2018-06-15T15:13:39.065Z,3.97
2018-06-15T15:16:09.141Z,3.90
2018-06-15T15:18:39.326Z,3.62
2018-06-15T15:21:09.609Z,3.83
2018-06-15T15:23:39.871Z,4.00
2018-06-15T15:26:10.183Z,4.20
2018-06-15T15:28:40.321Z,3.92
2018-06-15T15:31:10.389Z,4.47
2018-06-15T15:33:40.656Z,4.65
2018-06-15T15:36:10.840Z,4.80
2018-06-15T15:38:41.181Z,4.70
2018-06-15T15:41:11.315Z,4.73
2018-06-15T15:43:41.329Z,3.90
2018-06-15T15:46:11.701Z,4.50
2018-06-15T15:48:41.823Z,4.57
2018-06-15T15:51:12.119Z,4.50
2018-06-15T15:53:42.201Z,4.17
2018-06-15T15:56:12.558Z,6.97
2018-06-15T15:58:42.655Z,5.30
2018-06-15T16:01:12.770Z,4.30
2018-06-15T16:03:43.125Z,3.52
2018-06-15T16:06:13.003Z,4.60
2018-06-15T16:08:43.461Z,4.23
2018-06-15T16:11:13.636Z,3.87
2018-06-15T16:13:43.908Z,4.42
2018-06-15T16:16:14.033Z,4.15
2018-06-15T16:18:44.271Z,3.80
2018-06-15T16:21:14.504Z,3.97
2018-06-15T16:23:44.760Z,4.23
2018-06-15T16:26:14.781Z,3.90
2018-06-15T16:28:44.872Z,3.27
2018-06-15T16:31:15.238Z,3.73
2018-06-15T16:33:45.559Z,3.13
2018-06-15T16:36:15.769Z,3.77
2018-06-15T16:38:45.730Z,3.40
2018-06-15T16:41:15.752Z,3.90
2018-06-15T16:43:46.253Z,3.53
2018-06-15T16:46:16.299Z,3.70
2018-06-15T16:48:46.640Z,4.50
2018-06-15T16:51:16.721Z,15.77
2018-06-15T16:53:47.011Z,6.03
2018-06-15T16:56:17.056Z,4.40
2018-06-15T16:58:47.284Z,4.35
2018-06-15T17:01:17.421Z,4.03
2018-06-15T17:03:47.716Z,3.67
2018-06-15T17:06:17.821Z,3.70
2018-06-15T17:08:48.258Z,3.80
2018-06-15T17:11:18.358Z,3.27
2018-06-15T17:13:48.477Z,3.10
2018-06-15T17:16:18.827Z,3.70
2018-06-15T17:18:48.791Z,3.70
2018-06-15T17:21:19.170Z,4.00
2018-06-15T17:23:49.316Z,3.80
2018-06-15T17:26:19.324Z,3.43
2018-06-15T17:28:49.450Z,3.17
2018-06-15T17:31:19.799Z,4.27
2018-06-15T17:33:49.936Z,4.03
2018-06-15T17:36:20.211Z,3.20
2018-06-15T17:38:50.252Z,3.77
2018-06-15T17:41:20.254Z,4.03
2018-06-15T17:43:50.204Z,3.93
2018-06-15T17:46:20.556Z,6.80
2018-06-15T17:48:51.017Z,4.27
2018-06-15T17:51:21.491Z,3.40
2018-06-15T17:53:51.579Z,3.12
2018-06-15T17:56:21.897Z,3.60
2018-06-15T17:58:52.059Z,4.05
2018-06-15T18:01:22.308Z,3.77
2018-06-15T18:03:52.404Z,3.80
2018-06-15T18:06:22.576Z,3.90
2018-06-15T18:08:53.017Z,3.83
2018-06-15T18:11:22.805Z,4.10
2018-06-15T18:13:53.231Z,3.90
2018-06-15T18:16:23.554Z,3.75
2018-06-15T18:18:53.941Z,3.65
2018-06-15T18:21:24.082Z,4.40
2018-06-15T18:23:54.369Z,4.23
2018-06-15T18:26:24.733Z,4.50
2018-06-15T18:28:54.811Z,7.15
2018-06-15T18:31:25.247Z,8.65
2018-06-15T18:33:57.240Z,4.43
2018-06-15T18:36:27.445Z,3.77
2018-06-15T18:38:57.394Z,3.70
2018-06-15T18:41:27.786Z,4.57
2018-06-15T18:43:58.549Z,4.07
2018-06-15T18:46:28.549Z,4.20
2018-06-15T18:48:58.935Z,4.60
2018-06-15T18:51:29.105Z,4.22
2018-06-15T18:53:59.518Z,3.70
2018-06-15T18:56:29.700Z,4.28
2018-06-15T18:59:00.081Z,4.17
2018-06-15T19:01:30.451Z,4.05
2018-06-15T19:04:00.846Z,4.25
2018-06-15T19:06:31.181Z,4.15
2018-06-15T19:09:01.356Z,4.77
2018-06-15T19:11:31.604Z,4.72
2018-06-15T19:14:01.741Z,12.47
2018-06-15T19:16:32.033Z,14.35
2018-06-15T19:19:02.153Z,7.33
2018-06-15T19:21:32.311Z,5.90
2018-06-15T19:24:02.700Z,5.00
2018-06-15T19:26:33.078Z,5.40
2018-06-15T19:29:03.228Z,5.10
2018-06-15T19:31:33.236Z,5.20
2018-06-15T19:34:03.359Z,4.90
2018-06-15T19:36:33.510Z,5.13
2018-06-15T19:39:04.631Z,5.47
2018-06-15T19:41:34.694Z,5.13
2018-06-15T19:44:05.013Z,4.07
2018-06-15T19:46:35.669Z,5.57
2018-06-15T19:49:05.831Z,4.80
2018-06-15T19:51:36.140Z,5.07
2018-06-15T19:54:07.287Z,5.00
2018-06-15T19:56:37.996Z,4.63
2018-06-15T19:59:08.264Z,4.93
2018-06-15T20:01:38.818Z,4.50
2018-06-15T20:04:09.414Z,4.37
2018-06-15T20:06:39.737Z,4.60
2018-06-15T20:09:10.111Z,4.90
2018-06-15T20:11:40.151Z,4.73
2018-06-15T20:14:10.395Z,4.67
2018-06-15T20:16:40.753Z,4.67
2018-06-15T20:19:10.767Z,5.23
2018-06-15T20:21:40.896Z,4.93
2018-06-15T20:24:11.247Z,4.50
2018-06-15T20:26:41.575Z,5.05
2018-06-15T20:29:12.415Z,5.12
2018-06-15T20:31:42.766Z,5.13
2018-06-15T20:34:13.271Z,5.53
2018-06-15T20:36:43.540Z,4.80
2018-06-15T20:39:13.899Z,5.22
2018-06-15T20:41:44.374Z,6.20
2018-06-15T20:44:14.820Z,5.35
2018-06-15T20:46:45.348Z,5.37
2018-06-15T20:49:16.076Z,5.17
2018-06-15T20:51:46.393Z,4.75
2018-06-15T20:54:17.409Z,4.30
2018-06-15T20:56:47.601Z,6.05
2018-06-15T20:59:18.009Z,6.65
2018-06-15T21:01:48.946Z,5.60
2018-06-15T21:04:19.073Z,5.70
2018-06-15T21:06:49.462Z,7.10
2018-06-15T21:09:20.415Z,6.33
2018-06-15T21:11:50.534Z,5.55
2018-06-15T21:14:20.911Z,5.28
2018-06-15T21:16:51.970Z,5.03
2018-06-15T21:19:22.105Z,5.30
2018-06-15T21:21:52.677Z,5.72
2018-06-15T21:24:23.218Z,5.75
2018-06-15T21:26:53.856Z,5.62
2018-06-15T21:29:24.173Z,5.60
2018-06-15T21:31:55.024Z,14.60
2018-06-15T21:34:25.577Z,21.30
2018-06-15T21:36:55.792Z,18.25
2018-06-15T21:39:26.835Z,10.82
2018-06-15T21:41:56.900Z,9.90
2018-06-15T21:44:27.305Z,8.00
2018-06-15T21:46:57.745Z,9.15
2018-06-15T21:49:28.455Z,8.58
2018-06-15T21:51:58.670Z,8.85
2018-06-15T21:54:29.470Z,6.83
2018-06-15T21:56:59.682Z,6.90
2018-06-15T21:59:30.321Z,6.35
2018-06-15T22:02:01.013Z,7.12
2018-06-15T22:04:31.547Z,7.53
2018-06-15T22:07:02.062Z,7.47
2018-06-15T22:09:32.693Z,6.28
2018-06-15T22:12:03.125Z,6.40
2018-06-15T22:14:33.346Z,7.65
2018-06-15T22:17:03.565Z,6.60
2018-06-15T22:19:34.528Z,6.90
2018-06-15T22:22:04.837Z,6.83
2018-06-15T22:24:35.224Z,6.22
2018-06-15T22:27:05.379Z,5.92
2018-06-15T22:29:36.404Z,5.72
2018-06-15T22:32:06.858Z,5.57
2018-06-15T22:34:37.702Z,6.20
2018-06-15T22:37:07.976Z,6.42
2018-06-15T22:39:38.353Z,5.60
2018-06-15T22:42:08.915Z,5.20
2018-06-15T22:44:39.614Z,6.20
2018-06-15T22:47:10.216Z,5.97
2018-06-15T22:49:40.784Z,5.58
2018-06-15T22:52:11.117Z,6.10
2018-06-15T22:54:41.413Z,5.60
2018-06-15T22:57:12.441Z,5.42
2018-06-15T22:59:42.525Z,6.00
2018-06-15T23:02:12.930Z,5.60
2018-06-15T23:04:43.977Z,5.53
2018-06-15T23:07:14.555Z,5.72
2018-06-15T23:09:44.650Z,5.10
2018-06-15T23:12:14.861Z,4.47
2018-06-15T23:14:45.819Z,4.85
2018-06-15T23:17:16.622Z,5.37
2018-06-15T23:19:47.148Z,5.57
2018-06-15T23:22:17.038Z,5.13
2018-06-15T23:24:47.652Z,4.97
2018-06-15T23:27:18.394Z,4.22
2018-06-15T23:29:48.637Z,5.00
2018-06-15T23:32:19.428Z,5.40
2018-06-15T23:34:49.512Z,5.20
2018-06-15T23:37:20.043Z,5.12
2018-06-15T23:39:50.691Z,5.30
2018-06-15T23:42:20.962Z,5.63
2018-06-15T23:44:52.049Z,5.30
2018-06-15T23:47:22.223Z,4.58
2018-06-15T23:49:53.097Z,5.17
2018-06-15T23:52:23.496Z,5.00
2018-06-15T23:54:53.667Z,4.80
2018-06-15T23:57:23.992Z,5.67
2018-06-15T23:59:54.770Z,5.05
